sensor_id;sensor_type;location;lat;lon;timestamp;temperature;humidity
56428;DHT22;42331;53.578;9.760;2024-03-02T00:00:05;9.00;99.90
56428;DHT22;42331;53.578;9.760;2024-03-02T00:02:44;9.00;99.90
56428;DHT22;42331;53.578;9.760;2024-03-02T00:05:20;9.00;99.90
56428;DHT22;42331;53.578;9.760;2024-03-02T00:07:56;9.00;99.90
56428;DHT22;42331;53.578;9.760;2024-03-02T00:10:38;9.00;99.90
56428;DHT22;42331;53.578;9.760;2024-03-02T00:13:12;9.00;99.90
56428;DHT22;42331;53.578;9.760;2024-03-02T00:15:47;9.10;99.90
56428;DHT22;42331;53.578;9.760;2024-03-02T00:18:32;9.00;99.90
56428;DHT22;42331;53.578;9.760;2024-03-02T00:21:03;9.00;99.90
56428;DHT22;42331;53.578;9.760;2024-03-02T00:23:37;9.10;99.90
56428;DHT22;42331;53.578;9.760;2024-03-02T00:26:11;9.00;99.90
56428;DHT22;42331;53.578;9.760;2024-03-02T00:28:42;9.00;99.90
56428;DHT22;42331;53.578;9.760;2024-03-02T00:31:15;9.00;99.90
56428;DHT22;42331;53.578;9.760;2024-03-02T00:33:49;9.10;99.90
56428;DHT22;42331;53.578;9.760;2024-03-02T00:36:25;9.00;99.90
56428;DHT22;42331;53.578;9.760;2024-03-02T00:38:56;9.10;99.90
56428;DHT22;42331;53.578;9.760;2024-03-02T00:41:29;9.10;99.90
56428;DHT22;42331;53.578;9.760;2024-03-02T00:44:04;9.00;99.90
56428;DHT22;42331;53.578;9.760;2024-03-02T00:46:38;9.00;99.90
56428;DHT22;42331;53.578;9.760;2024-03-02T00:51:46;9.00;99.90
56428;DHT22;42331;53.578;9.760;2024-03-02T00:54:23;9.00;99.90
56428;DHT22;42331;53.578;9.760;2024-03-02T00:56:56;8.90;99.90
56428;DHT22;42331;53.578;9.760;2024-03-02T00:59:27;8.90;99.90
56428;DHT22;42331;53.578;9.760;2024-03-02T01:01:58;8.90;99.90
56428;DHT22;42331;53.578;9.760;2024-03-02T01:04:28;8.90;99.90
56428;DHT22;42331;53.578;9.760;2024-03-02T01:06:59;8.90;99.90
56428;DHT22;42331;53.578;9.760;2024-03-02T01:09:30;8.90;99.90
56428;DHT22;42331;53.578;9.760;2024-03-02T01:12:01;8.80;99.90
56428;DHT22;42331;53.578;9.760;2024-03-02T01:14:31;8.80;99.90
56428;DHT22;42331;53.578;9.760;2024-03-02T01:17:02;8.80;99.90
56428;DHT22;42331;53.578;9.760;2024-03-02T01:19:34;8.80;99.90
56428;DHT22;42331;53.578;9.760;2024-03-02T01:22:05;8.80;99.90
56428;DHT22;42331;53.578;9.760;2024-03-02T01:24:36;8.70;99.90
56428;DHT22;42331;53.578;9.760;2024-03-02T01:27:06;8.70;99.90
56428;DHT22;42331;53.578;9.760;2024-03-02T01:29:38;8.60;99.90
56428;DHT22;42331;53.578;9.760;2024-03-02T01:32:08;8.60;99.90
56428;DHT22;42331;53.578;9.760;2024-03-02T01:34:39;8.60;99.90
56428;DHT22;42331;53.578;9.760;2024-03-02T01:37:10;8.50;99.90
56428;DHT22;42331;53.578;9.760;2024-03-02T01:39:40;8.50;99.90
56428;DHT22;42331;53.578;9.760;2024-03-02T01:42:11;8.50;99.90
56428;DHT22;42331;53.578;9.760;2024-03-02T01:44:42;8.50;99.90
56428;DHT22;42331;53.578;9.760;2024-03-02T01:47:13;8.50;99.90
56428;DHT22;42331;53.578;9.760;2024-03-02T01:49:43;8.60;99.90
56428;DHT22;42331;53.578;9.760;2024-03-02T01:52:14;8.50;99.90
56428;DHT22;42331;53.578;9.760;2024-03-02T01:54:44;8.50;99.90
56428;DHT22;42331;53.578;9.760;2024-03-02T01:57:15;8.50;99.90
56428;DHT22;42331;53.578;9.760;2024-03-02T01:59:47;8.50;99.90
56428;DHT22;42331;53.578;9.760;2024-03-02T02:02:21;8.50;99.90
56428;DHT22;42331;53.578;9.760;2024-03-02T02:04:52;8.50;99.90
56428;DHT22;42331;53.578;9.760;2024-03-02T02:07:23;8.50;99.90
56428;DHT22;42331;53.578;9.760;2024-03-02T02:09:54;8.50;99.90
56428;DHT22;42331;53.578;9.760;2024-03-02T02:12:25;8.50;99.90
56428;DHT22;42331;53.578;9.760;2024-03-02T02:14:56;8.50;99.90
56428;DHT22;42331;53.578;9.760;2024-03-02T02:17:26;8.50;99.90
56428;DHT22;42331;53.578;9.760;2024-03-02T02:19:57;8.50;99.90
56428;DHT22;42331;53.578;9.760;2024-03-02T02:22:28;8.50;99.90
56428;DHT22;42331;53.578;9.760;2024-03-02T02:24:58;8.40;99.90
56428;DHT22;42331;53.578;9.760;2024-03-02T02:27:29;8.50;99.90
56428;DHT22;42331;53.578;9.760;2024-03-02T02:30:01;8.50;99.90
56428;DHT22;42331;53.578;9.760;2024-03-02T02:32:33;8.50;99.90
56428;DHT22;42331;53.578;9.760;2024-03-02T02:35:04;8.50;99.90
56428;DHT22;42331;53.578;9.760;2024-03-02T02:37:35;8.50;99.90
56428;DHT22;42331;53.578;9.760;2024-03-02T02:40:06;8.50;99.90
56428;DHT22;42331;53.578;9.760;2024-03-02T02:42:37;8.50;99.90
56428;DHT22;42331;53.578;9.760;2024-03-02T02:45:10;8.50;99.90
56428;DHT22;42331;53.578;9.760;2024-03-02T02:47:44;8.50;99.90
56428;DHT22;42331;53.578;9.760;2024-03-02T02:50:15;8.60;99.90
56428;DHT22;42331;53.578;9.760;2024-03-02T02:52:46;8.50;99.90
56428;DHT22;42331;53.578;9.760;2024-03-02T02:55:16;8.50;99.90
56428;DHT22;42331;53.578;9.760;2024-03-02T02:57:47;8.60;99.90
56428;DHT22;42331;53.578;9.760;2024-03-02T03:00:18;8.60;99.90
56428;DHT22;42331;53.578;9.760;2024-03-02T03:02:50;8.50;99.90
56428;DHT22;42331;53.578;9.760;2024-03-02T03:05:21;8.50;99.90
56428;DHT22;42331;53.578;9.760;2024-03-02T03:07:51;8.50;99.90
56428;DHT22;42331;53.578;9.760;2024-03-02T03:10:22;8.50;99.90
56428;DHT22;42331;53.578;9.760;2024-03-02T03:12:54;8.50;99.90
56428;DHT22;42331;53.578;9.760;2024-03-02T03:15:26;8.40;99.90
56428;DHT22;42331;53.578;9.760;2024-03-02T03:17:57;8.40;99.90
56428;DHT22;42331;53.578;9.760;2024-03-02T03:20:28;8.40;99.90
56428;DHT22;42331;53.578;9.760;2024-03-02T03:22:59;8.40;99.90
56428;DHT22;42331;53.578;9.760;2024-03-02T03:25:30;8.40;99.90
56428;DHT22;42331;53.578;9.760;2024-03-02T03:28:01;8.40;99.90
56428;DHT22;42331;53.578;9.760;2024-03-02T03:30:32;8.40;99.90
56428;DHT22;42331;53.578;9.760;2024-03-02T03:33:03;8.30;99.90
56428;DHT22;42331;53.578;9.760;2024-03-02T03:35:34;8.30;99.90
56428;DHT22;42331;53.578;9.760;2024-03-02T03:38:05;8.30;99.90
56428;DHT22;42331;53.578;9.760;2024-03-02T03:40:36;8.30;99.90
56428;DHT22;42331;53.578;9.760;2024-03-02T03:43:07;8.30;99.90
56428;DHT22;42331;53.578;9.760;2024-03-02T03:45:39;8.30;99.90
56428;DHT22;42331;53.578;9.760;2024-03-02T03:48:09;8.30;99.90
56428;DHT22;42331;53.578;9.760;2024-03-02T03:50:40;8.30;99.90
56428;DHT22;42331;53.578;9.760;2024-03-02T03:53:11;8.30;99.90
56428;DHT22;42331;53.578;9.760;2024-03-02T03:55:42;8.30;99.90
56428;DHT22;42331;53.578;9.760;2024-03-02T03:58:13;8.30;99.90
56428;DHT22;42331;53.578;9.760;2024-03-02T04:00:44;8.30;99.90
56428;DHT22;42331;53.578;9.760;2024-03-02T04:03:14;8.30;99.90
56428;DHT22;42331;53.578;9.760;2024-03-02T04:05:45;8.30;99.90
56428;DHT22;42331;53.578;9.760;2024-03-02T04:08:16;8.30;99.90
56428;DHT22;42331;53.578;9.760;2024-03-02T04:10:47;8.30;99.90
56428;DHT22;42331;53.578;9.760;2024-03-02T04:13:17;8.30;99.90
56428;DHT22;42331;53.578;9.760;2024-03-02T04:15:48;8.30;99.90
56428;DHT22;42331;53.578;9.760;2024-03-02T04:18:19;8.30;99.90
56428;DHT22;42331;53.578;9.760;2024-03-02T04:20:49;8.30;99.90
56428;DHT22;42331;53.578;9.760;2024-03-02T04:23:20;8.30;99.90
56428;DHT22;42331;53.578;9.760;2024-03-02T04:25:51;8.30;99.90
56428;DHT22;42331;53.578;9.760;2024-03-02T04:28:21;8.20;99.90
56428;DHT22;42331;53.578;9.760;2024-03-02T04:30:52;8.20;99.90
56428;DHT22;42331;53.578;9.760;2024-03-02T04:33:23;8.20;99.90
56428;DHT22;42331;53.578;9.760;2024-03-02T04:35:54;8.20;99.90
56428;DHT22;42331;53.578;9.760;2024-03-02T04:38:25;8.20;99.90
56428;DHT22;42331;53.578;9.760;2024-03-02T04:40:55;8.20;99.90
56428;DHT22;42331;53.578;9.760;2024-03-02T04:43:26;8.20;99.90
56428;DHT22;42331;53.578;9.760;2024-03-02T04:45:57;8.10;99.90
56428;DHT22;42331;53.578;9.760;2024-03-02T04:48:28;8.10;99.90
56428;DHT22;42331;53.578;9.760;2024-03-02T04:50:59;8.10;99.90
56428;DHT22;42331;53.578;9.760;2024-03-02T04:53:30;8.10;99.90
56428;DHT22;42331;53.578;9.760;2024-03-02T04:56:00;8.10;99.90
56428;DHT22;42331;53.578;9.760;2024-03-02T04:58:54;8.10;99.90
56428;DHT22;42331;53.578;9.760;2024-03-02T05:01:25;8.10;99.90
56428;DHT22;42331;53.578;9.760;2024-03-02T05:03:56;8.10;99.90
56428;DHT22;42331;53.578;9.760;2024-03-02T05:06:27;8.10;99.90
56428;DHT22;42331;53.578;9.760;2024-03-02T05:08:57;8.00;99.90
56428;DHT22;42331;53.578;9.760;2024-03-02T05:11:28;8.00;99.90
56428;DHT22;42331;53.578;9.760;2024-03-02T05:14:07;8.00;99.90
56428;DHT22;42331;53.578;9.760;2024-03-02T05:16:38;8.00;99.90
56428;DHT22;42331;53.578;9.760;2024-03-02T05:19:09;8.00;99.90
56428;DHT22;42331;53.578;9.760;2024-03-02T05:21:39;8.00;99.90
56428;DHT22;42331;53.578;9.760;2024-03-02T05:24:10;8.00;99.90
56428;DHT22;42331;53.578;9.760;2024-03-02T05:26:41;8.00;99.90
56428;DHT22;42331;53.578;9.760;2024-03-02T05:29:11;8.00;99.90
56428;DHT22;42331;53.578;9.760;2024-03-02T05:31:42;8.00;99.90
56428;DHT22;42331;53.578;9.760;2024-03-02T05:34:13;8.10;99.90
56428;DHT22;42331;53.578;9.760;2024-03-02T05:36:43;8.00;99.90
56428;DHT22;42331;53.578;9.760;2024-03-02T05:39:14;8.00;99.90
56428;DHT22;42331;53.578;9.760;2024-03-02T05:41:46;8.00;99.90
56428;DHT22;42331;53.578;9.760;2024-03-02T05:44:16;8.00;99.90
56428;DHT22;42331;53.578;9.760;2024-03-02T05:46:47;7.90;99.90
56428;DHT22;42331;53.578;9.760;2024-03-02T05:49:18;7.90;99.90
56428;DHT22;42331;53.578;9.760;2024-03-02T05:51:48;7.90;99.90
56428;DHT22;42331;53.578;9.760;2024-03-02T05:54:19;7.80;99.90
56428;DHT22;42331;53.578;9.760;2024-03-02T05:56:50;7.90;99.90
56428;DHT22;42331;53.578;9.760;2024-03-02T05:59:20;7.90;99.90
56428;DHT22;42331;53.578;9.760;2024-03-02T06:01:51;7.80;99.90
56428;DHT22;42331;53.578;9.760;2024-03-02T06:04:22;7.80;99.90
56428;DHT22;42331;53.578;9.760;2024-03-02T06:06:52;7.80;99.90
56428;DHT22;42331;53.578;9.760;2024-03-02T06:09:25;7.70;99.90
56428;DHT22;42331;53.578;9.760;2024-03-02T06:11:57;7.70;99.90
56428;DHT22;42331;53.578;9.760;2024-03-02T06:14:27;7.70;99.90
56428;DHT22;42331;53.578;9.760;2024-03-02T06:16:58;7.70;99.90
56428;DHT22;42331;53.578;9.760;2024-03-02T06:19:30;7.70;99.90
56428;DHT22;42331;53.578;9.760;2024-03-02T06:22:00;7.60;99.90
56428;DHT22;42331;53.578;9.760;2024-03-02T06:24:31;7.60;99.90
56428;DHT22;42331;53.578;9.760;2024-03-02T06:27:05;7.70;99.90
56428;DHT22;42331;53.578;9.760;2024-03-02T06:29:35;7.60;99.90
56428;DHT22;42331;53.578;9.760;2024-03-02T06:32:06;7.70;99.90
56428;DHT22;42331;53.578;9.760;2024-03-02T06:34:37;7.70;99.90
56428;DHT22;42331;53.578;9.760;2024-03-02T06:37:08;7.70;99.90
56428;DHT22;42331;53.578;9.760;2024-03-02T06:39:39;7.80;99.90
56428;DHT22;42331;53.578;9.760;2024-03-02T06:42:10;7.80;99.90
56428;DHT22;42331;53.578;9.760;2024-03-02T06:44:40;7.80;99.90
56428;DHT22;42331;53.578;9.760;2024-03-02T06:47:11;7.80;99.90
56428;DHT22;42331;53.578;9.760;2024-03-02T06:49:42;7.90;99.90
56428;DHT22;42331;53.578;9.760;2024-03-02T06:52:12;7.90;99.90
56428;DHT22;42331;53.578;9.760;2024-03-02T06:54:43;8.00;99.90
56428;DHT22;42331;53.578;9.760;2024-03-02T06:57:14;8.00;99.90
56428;DHT22;42331;53.578;9.760;2024-03-02T06:59:45;8.20;99.90
56428;DHT22;42331;53.578;9.760;2024-03-02T07:02:16;8.20;99.90
56428;DHT22;42331;53.578;9.760;2024-03-02T07:04:46;8.20;99.90
56428;DHT22;42331;53.578;9.760;2024-03-02T07:07:17;8.20;99.90
56428;DHT22;42331;53.578;9.760;2024-03-02T07:09:51;8.20;99.90
56428;DHT22;42331;53.578;9.760;2024-03-02T07:12:22;8.10;99.90
56428;DHT22;42331;53.578;9.760;2024-03-02T07:14:53;8.10;99.90
56428;DHT22;42331;53.578;9.760;2024-03-02T07:17:35;8.10;99.90
56428;DHT22;42331;53.578;9.760;2024-03-02T07:20:07;8.10;99.90
56428;DHT22;42331;53.578;9.760;2024-03-02T07:22:38;8.00;99.90
56428;DHT22;42331;53.578;9.760;2024-03-02T07:25:10;8.00;99.90
56428;DHT22;42331;53.578;9.760;2024-03-02T07:27:41;8.00;99.90
56428;DHT22;42331;53.578;9.760;2024-03-02T07:30:27;8.00;99.90
56428;DHT22;42331;53.578;9.760;2024-03-02T07:33:01;8.00;99.90
56428;DHT22;42331;53.578;9.760;2024-03-02T07:35:34;8.00;99.90
56428;DHT22;42331;53.578;9.760;2024-03-02T07:38:05;8.10;99.90
56428;DHT22;42331;53.578;9.760;2024-03-02T07:40:38;8.00;99.90
56428;DHT22;42331;53.578;9.760;2024-03-02T07:43:09;8.10;99.90
56428;DHT22;42331;53.578;9.760;2024-03-02T07:45:40;8.10;99.90
56428;DHT22;42331;53.578;9.760;2024-03-02T07:48:12;8.20;99.90
56428;DHT22;42331;53.578;9.760;2024-03-02T07:50:43;8.20;99.90
56428;DHT22;42331;53.578;9.760;2024-03-02T07:53:13;8.30;99.90
56428;DHT22;42331;53.578;9.760;2024-03-02T07:55:45;8.30;99.90
56428;DHT22;42331;53.578;9.760;2024-03-02T07:58:16;8.40;99.90
56428;DHT22;42331;53.578;9.760;2024-03-02T08:01:10;8.40;99.90
56428;DHT22;42331;53.578;9.760;2024-03-02T08:03:40;8.50;99.90
56428;DHT22;42331;53.578;9.760;2024-03-02T08:06:10;8.50;99.90
56428;DHT22;42331;53.578;9.760;2024-03-02T08:08:42;8.60;99.90
56428;DHT22;42331;53.578;9.760;2024-03-02T08:11:13;8.60;99.90
56428;DHT22;42331;53.578;9.760;2024-03-02T08:13:44;8.60;99.90
56428;DHT22;42331;53.578;9.760;2024-03-02T08:16:18;8.60;99.90
56428;DHT22;42331;53.578;9.760;2024-03-02T08:18:52;8.70;99.90
56428;DHT22;42331;53.578;9.760;2024-03-02T08:21:23;8.70;99.90
56428;DHT22;42331;53.578;9.760;2024-03-02T08:23:54;8.70;99.90
56428;DHT22;42331;53.578;9.760;2024-03-02T08:26:25;8.80;99.90
56428;DHT22;42331;53.578;9.760;2024-03-02T08:28:56;8.80;99.90
56428;DHT22;42331;53.578;9.760;2024-03-02T08:31:27;8.80;99.90
56428;DHT22;42331;53.578;9.760;2024-03-02T08:33:58;8.90;99.90
56428;DHT22;42331;53.578;9.760;2024-03-02T08:36:29;8.90;99.90
56428;DHT22;42331;53.578;9.760;2024-03-02T08:39:00;9.00;99.90
56428;DHT22;42331;53.578;9.760;2024-03-02T08:41:30;9.00;99.90
56428;DHT22;42331;53.578;9.760;2024-03-02T08:44:01;9.10;99.90
56428;DHT22;42331;53.578;9.760;2024-03-02T08:46:32;9.00;99.90
56428;DHT22;42331;53.578;9.760;2024-03-02T08:49:04;9.00;99.90
56428;DHT22;42331;53.578;9.760;2024-03-02T08:51:35;9.10;99.90
56428;DHT22;42331;53.578;9.760;2024-03-02T08:54:06;9.20;99.90
56428;DHT22;42331;53.578;9.760;2024-03-02T08:56:36;9.20;99.90
56428;DHT22;42331;53.578;9.760;2024-03-02T08:59:07;9.30;99.90
56428;DHT22;42331;53.578;9.760;2024-03-02T09:01:38;9.40;99.90
56428;DHT22;42331;53.578;9.760;2024-03-02T09:04:12;9.40;99.90
56428;DHT22;42331;53.578;9.760;2024-03-02T09:06:42;9.40;99.90
56428;DHT22;42331;53.578;9.760;2024-03-02T09:09:14;9.50;99.90
56428;DHT22;42331;53.578;9.760;2024-03-02T09:11:48;9.60;99.90
56428;DHT22;42331;53.578;9.760;2024-03-02T09:14:19;9.70;99.90
56428;DHT22;42331;53.578;9.760;2024-03-02T09:16:50;9.80;99.90
56428;DHT22;42331;53.578;9.760;2024-03-02T09:19:20;9.90;99.90
56428;DHT22;42331;53.578;9.760;2024-03-02T09:21:51;10.00;99.90
56428;DHT22;42331;53.578;9.760;2024-03-02T09:24:22;10.20;99.90
56428;DHT22;42331;53.578;9.760;2024-03-02T09:26:53;10.40;99.90
56428;DHT22;42331;53.578;9.760;2024-03-02T09:29:23;10.50;99.90
56428;DHT22;42331;53.578;9.760;2024-03-02T09:31:56;10.60;99.90
56428;DHT22;42331;53.578;9.760;2024-03-02T09:34:27;10.80;99.90
56428;DHT22;42331;53.578;9.760;2024-03-02T09:36:58;11.10;99.90
56428;DHT22;42331;53.578;9.760;2024-03-02T09:39:31;11.20;99.90
56428;DHT22;42331;53.578;9.760;2024-03-02T09:42:04;11.30;99.90
56428;DHT22;42331;53.578;9.760;2024-03-02T09:44:37;11.50;99.90
56428;DHT22;42331;53.578;9.760;2024-03-02T09:47:08;11.60;99.90
56428;DHT22;42331;53.578;9.760;2024-03-02T09:49:40;11.80;99.90
56428;DHT22;42331;53.578;9.760;2024-03-02T09:52:11;11.80;99.90
56428;DHT22;42331;53.578;9.760;2024-03-02T09:54:42;11.80;99.90
56428;DHT22;42331;53.578;9.760;2024-03-02T09:57:17;11.90;99.90
56428;DHT22;42331;53.578;9.760;2024-03-02T09:59:51;12.00;99.90
56428;DHT22;42331;53.578;9.760;2024-03-02T10:02:21;12.00;99.90
56428;DHT22;42331;53.578;9.760;2024-03-02T10:04:55;12.10;99.90
56428;DHT22;42331;53.578;9.760;2024-03-02T10:07:29;12.20;99.90
56428;DHT22;42331;53.578;9.760;2024-03-02T10:10:18;12.20;99.90
56428;DHT22;42331;53.578;9.760;2024-03-02T10:13:07;12.30;99.90
56428;DHT22;42331;53.578;9.760;2024-03-02T10:15:40;12.40;99.90
56428;DHT22;42331;53.578;9.760;2024-03-02T10:18:26;12.60;99.90
56428;DHT22;42331;53.578;9.760;2024-03-02T10:21:13;12.70;99.90
56428;DHT22;42331;53.578;9.760;2024-03-02T10:23:44;12.70;99.90
56428;DHT22;42331;53.578;9.760;2024-03-02T10:26:18;12.80;99.90
56428;DHT22;42331;53.578;9.760;2024-03-02T10:28:49;13.10;99.90
56428;DHT22;42331;53.578;9.760;2024-03-02T10:31:25;13.50;99.90
56428;DHT22;42331;53.578;9.760;2024-03-02T10:33:59;13.70;99.90
56428;DHT22;42331;53.578;9.760;2024-03-02T10:36:30;13.60;99.90
56428;DHT22;42331;53.578;9.760;2024-03-02T10:39:05;13.70;99.90
56428;DHT22;42331;53.578;9.760;2024-03-02T10:41:39;13.70;99.90
56428;DHT22;42331;53.578;9.760;2024-03-02T10:44:12;13.50;99.90
56428;DHT22;42331;53.578;9.760;2024-03-02T10:46:47;13.70;99.90
56428;DHT22;42331;53.578;9.760;2024-03-02T10:49:20;13.70;99.90
56428;DHT22;42331;53.578;9.760;2024-03-02T10:51:53;13.60;99.90
56428;DHT22;42331;53.578;9.760;2024-03-02T10:54:24;13.50;99.90
56428;DHT22;42331;53.578;9.760;2024-03-02T10:56:59;13.50;99.90
56428;DHT22;42331;53.578;9.760;2024-03-02T10:59:36;13.40;99.90
56428;DHT22;42331;53.578;9.760;2024-03-02T11:02:11;13.10;99.90
56428;DHT22;42331;53.578;9.760;2024-03-02T11:04:43;13.00;99.90
56428;DHT22;42331;53.578;9.760;2024-03-02T11:07:27;12.90;99.90
56428;DHT22;42331;53.578;9.760;2024-03-02T11:10:05;12.90;99.90
56428;DHT22;42331;53.578;9.760;2024-03-02T11:12:48;13.00;99.90
56428;DHT22;42331;53.578;9.760;2024-03-02T11:15:21;13.00;99.90
56428;DHT22;42331;53.578;9.760;2024-03-02T11:17:57;13.10;99.90
56428;DHT22;42331;53.578;9.760;2024-03-02T11:20:28;13.20;99.90
56428;DHT22;42331;53.578;9.760;2024-03-02T11:23:05;13.20;99.90
56428;DHT22;42331;53.578;9.760;2024-03-02T11:25:37;13.30;99.90
56428;DHT22;42331;53.578;9.760;2024-03-02T11:28:09;13.20;99.90
56428;DHT22;42331;53.578;9.760;2024-03-02T11:33:23;12.90;99.90
56428;DHT22;42331;53.578;9.760;2024-03-02T11:35:55;12.90;99.90
56428;DHT22;42331;53.578;9.760;2024-03-02T11:38:30;12.90;99.90
56428;DHT22;42331;53.578;9.760;2024-03-02T11:41:02;12.90;99.90
56428;DHT22;42331;53.578;9.760;2024-03-02T11:43:36;12.90;99.90
56428;DHT22;42331;53.578;9.760;2024-03-02T11:46:07;12.90;99.90
56428;DHT22;42331;53.578;9.760;2024-03-02T11:48:39;12.90;99.90
56428;DHT22;42331;53.578;9.760;2024-03-02T11:51:11;12.90;99.90
56428;DHT22;42331;53.578;9.760;2024-03-02T11:53:42;12.80;99.90
